createdAt,value
2017-11-17T00:00:22.606Z,18.40
2017-11-17T00:01:22.599Z,19.10
2017-11-17T00:02:22.593Z,19.20
2017-11-17T00:03:22.585Z,18.30
2017-11-17T00:04:22.579Z,18.60
2017-11-17T00:05:22.572Z,19.30
2017-11-17T00:06:22.565Z,19.10
2017-11-17T00:07:22.559Z,19.20
2017-11-17T00:08:22.552Z,19.20
2017-11-17T00:09:22.546Z,19.40
2017-11-17T00:10:22.539Z,18.20
2017-11-17T00:11:22.538Z,18.40
2017-11-17T00:12:22.526Z,19.00
2017-11-17T00:13:22.519Z,18.40
2017-11-17T00:14:22.513Z,18.80
2017-11-17T00:15:22.506Z,18.20
2017-11-17T00:16:22.514Z,19.30
2017-11-17T00:17:22.492Z,17.90
2017-11-17T00:18:22.485Z,18.00
2017-11-17T00:19:22.478Z,19.00
2017-11-17T00:20:22.474Z,19.00
2017-11-17T00:21:22.467Z,19.60
2017-11-17T00:22:22.459Z,18.60
2017-11-17T00:23:22.453Z,17.50
2017-11-17T00:24:22.447Z,18.10
2017-11-17T00:25:22.440Z,19.30
2017-11-17T00:26:22.434Z,18.40
2017-11-17T00:27:22.426Z,19.50
2017-11-17T00:28:22.422Z,19.10
2017-11-17T00:29:22.413Z,18.70
2017-11-17T00:30:22.406Z,18.50
2017-11-17T00:31:22.399Z,17.40
2017-11-17T00:32:22.394Z,18.20
2017-11-17T00:33:22.392Z,18.00
2017-11-17T00:34:22.379Z,18.40
2017-11-17T00:35:22.373Z,18.80
2017-11-17T00:36:22.417Z,18.80
2017-11-17T00:37:22.360Z,18.20
2017-11-17T00:38:22.353Z,18.40
2017-11-17T00:39:22.347Z,19.00
2017-11-17T00:40:22.340Z,18.70
2017-11-17T00:41:22.334Z,17.90
2017-11-17T00:42:22.330Z,18.20
2017-11-17T00:43:22.320Z,18.20
2017-11-17T00:44:22.313Z,18.00
2017-11-17T00:45:22.306Z,17.90
2017-11-17T00:46:22.299Z,18.20
2017-11-17T00:47:22.293Z,17.40
2017-11-17T00:48:22.287Z,19.10
2017-11-17T00:49:22.281Z,17.00
2017-11-17T00:50:22.273Z,17.30
2017-11-17T00:51:22.268Z,17.60
2017-11-17T00:52:22.262Z,16.60
2017-11-17T00:53:22.253Z,18.10
2017-11-17T00:54:22.247Z,17.20
2017-11-17T00:55:22.240Z,18.00
2017-11-17T00:56:22.234Z,18.10
2017-11-17T00:57:22.277Z,17.40
2017-11-17T00:58:22.221Z,17.80
2017-11-17T00:59:22.214Z,17.40
2017-11-17T01:00:22.208Z,16.30
2017-11-17T01:01:22.201Z,16.50
2017-11-17T01:02:22.194Z,18.20
2017-11-17T01:03:22.187Z,18.20
2017-11-17T01:04:22.181Z,17.70
2017-11-17T01:05:22.175Z,15.70
2017-11-17T01:06:22.168Z,17.20
2017-11-17T01:07:22.160Z,17.20
2017-11-17T01:08:22.155Z,18.30
2017-11-17T01:09:22.148Z,16.80
2017-11-17T01:10:22.140Z,16.30
2017-11-17T01:11:22.134Z,16.50
2017-11-17T01:12:22.127Z,18.00
2017-11-17T01:13:22.121Z,16.40
2017-11-17T01:14:22.114Z,18.00
2017-11-17T01:15:22.107Z,17.10
2017-11-17T01:16:22.101Z,16.50
2017-11-17T01:17:22.095Z,16.70
2017-11-17T01:18:22.089Z,16.50
2017-11-17T01:19:22.081Z,17.10
2017-11-17T01:20:22.075Z,16.70
2017-11-17T01:21:22.068Z,17.60
2017-11-17T01:22:22.062Z,17.70
2017-11-17T01:23:22.054Z,15.70
2017-11-17T01:24:22.048Z,15.70
2017-11-17T01:25:22.041Z,16.90
2017-11-17T01:26:22.033Z,17.50
2017-11-17T01:27:22.027Z,16.00
2017-11-17T01:28:22.021Z,16.70
2017-11-17T01:29:22.015Z,16.70
2017-11-17T01:30:22.007Z,17.10
2017-11-17T01:31:22.000Z,17.60
2017-11-17T01:32:21.994Z,16.90
2017-11-17T01:33:21.988Z,17.50
2017-11-17T01:34:21.986Z,18.00
2017-11-17T01:35:21.975Z,17.30
2017-11-17T01:36:21.968Z,16.10
2017-11-17T01:37:21.961Z,16.70
2017-11-17T01:38:21.955Z,16.20
2017-11-17T01:39:21.948Z,17.30
2017-11-17T01:40:21.941Z,17.60
2017-11-17T01:41:21.936Z,17.70
2017-11-17T01:42:21.929Z,17.80
2017-11-17T01:43:21.970Z,15.70
2017-11-17T01:44:21.916Z,16.80
2017-11-17T01:45:21.908Z,17.10
2017-11-17T01:46:21.901Z,16.90
2017-11-17T01:47:21.895Z,17.30
2017-11-17T01:48:21.888Z,18.00
2017-11-17T01:49:21.882Z,17.10
2017-11-17T01:50:21.873Z,16.50
2017-11-17T01:51:21.869Z,17.70
2017-11-17T01:52:21.862Z,17.60
2017-11-17T01:53:21.855Z,17.50
2017-11-17T01:54:21.848Z,17.70
2017-11-17T01:55:21.841Z,16.20
2017-11-17T01:56:21.837Z,16.50
2017-11-17T01:57:21.827Z,17.60
2017-11-17T01:58:21.820Z,14.90
2017-11-17T01:59:21.815Z,15.60
2017-11-17T02:00:21.818Z,17.50
2017-11-17T02:01:21.800Z,17.10
2017-11-17T02:02:21.795Z,17.10
2017-11-17T02:03:21.789Z,16.90
2017-11-17T02:04:21.782Z,17.00
2017-11-17T02:05:21.779Z,16.60
2017-11-17T02:06:21.768Z,17.90
2017-11-17T02:07:21.762Z,17.50
2017-11-17T02:08:21.755Z,16.80
2017-11-17T02:09:21.750Z,17.20
2017-11-17T02:10:21.741Z,16.60
2017-11-17T02:11:21.738Z,17.50
2017-11-17T02:12:21.728Z,16.70
2017-11-17T02:13:21.722Z,16.60
2017-11-17T02:14:21.714Z,16.40
2017-11-17T02:15:21.709Z,14.80
2017-11-17T02:16:21.704Z,15.80
2017-11-17T02:17:21.695Z,16.70
2017-11-17T02:18:21.690Z,16.10
2017-11-17T02:19:21.683Z,16.90
2017-11-17T02:20:21.677Z,14.60
2017-11-17T02:21:21.669Z,16.70
2017-11-17T02:22:21.661Z,16.10
2017-11-17T02:23:21.661Z,16.50
2017-11-17T02:24:21.648Z,16.10
2017-11-17T02:25:21.642Z,15.30
2017-11-17T02:26:21.635Z,16.20
2017-11-17T02:27:21.628Z,15.50
2017-11-17T02:28:21.621Z,16.00
2017-11-17T02:29:21.617Z,14.90
2017-11-17T02:30:21.610Z,15.70
2017-11-17T02:31:21.603Z,17.20
2017-11-17T02:32:21.595Z,16.30
2017-11-17T02:33:21.589Z,16.20
2017-11-17T02:34:21.582Z,15.90
2017-11-17T02:35:21.577Z,15.30
2017-11-17T02:36:21.569Z,16.90
2017-11-17T02:37:21.567Z,15.70
2017-11-17T02:38:21.555Z,15.60
2017-11-17T02:39:21.549Z,17.20
2017-11-17T02:40:21.547Z,16.70
2017-11-17T02:41:21.536Z,15.50
2017-11-17T02:42:21.532Z,16.10
2017-11-17T02:43:21.523Z,13.90
2017-11-17T02:44:21.515Z,15.60
2017-11-17T02:45:21.509Z,14.50
2017-11-17T02:46:21.503Z,16.20
2017-11-17T02:47:21.495Z,14.60
2017-11-17T02:48:21.490Z,15.70
2017-11-17T02:49:21.484Z,15.10
2017-11-17T02:50:21.485Z,15.00
2017-11-17T02:51:21.469Z,14.50
2017-11-17T02:52:21.475Z,15.70
2017-11-17T02:53:21.456Z,15.40
2017-11-17T02:54:21.448Z,16.10
2017-11-17T02:55:21.443Z,15.90
2017-11-17T02:56:21.436Z,14.60
2017-11-17T02:57:21.430Z,14.60
2017-11-17T02:58:21.421Z,15.60
2017-11-17T02:59:21.424Z,14.20
2017-11-17T03:00:21.408Z,14.70
2017-11-17T03:01:21.402Z,14.20
2017-11-17T03:02:21.395Z,14.10
2017-11-17T03:03:21.388Z,14.90
2017-11-17T03:04:21.433Z,15.90
2017-11-17T03:05:21.375Z,13.90
2017-11-17T03:06:21.368Z,15.10
2017-11-17T03:07:21.362Z,14.80
2017-11-17T03:08:21.357Z,13.90
2017-11-17T03:09:21.349Z,14.30
2017-11-17T03:10:21.342Z,13.70
2017-11-17T03:11:21.336Z,13.90
2017-11-17T03:12:21.329Z,14.50
2017-11-17T03:13:21.323Z,14.70
2017-11-17T03:14:21.316Z,15.40
2017-11-17T03:15:21.310Z,14.50
2017-11-17T03:16:21.302Z,15.30
2017-11-17T03:17:21.295Z,15.30
2017-11-17T03:18:21.288Z,14.10
2017-11-17T03:19:21.283Z,14.60
2017-11-17T03:20:21.277Z,15.70
2017-11-17T03:21:21.269Z,14.30
2017-11-17T03:22:21.262Z,15.30
2017-11-17T03:23:21.256Z,14.10
2017-11-17T03:24:21.253Z,14.70
2017-11-17T03:25:21.243Z,13.40
2017-11-17T03:26:21.234Z,14.20
2017-11-17T03:27:21.229Z,14.90
2017-11-17T03:28:21.222Z,13.20
2017-11-17T03:29:21.267Z,13.90
2017-11-17T03:30:21.210Z,14.60
2017-11-17T03:31:21.201Z,15.30
2017-11-17T03:32:21.194Z,14.90
2017-11-17T03:33:21.187Z,14.20
2017-11-17T03:34:21.186Z,14.50
2017-11-17T03:35:21.172Z,14.30
2017-11-17T03:36:21.166Z,13.00
2017-11-17T03:37:21.160Z,14.10
2017-11-17T03:38:21.152Z,13.60
2017-11-17T03:39:21.146Z,12.80
2017-11-17T03:40:21.141Z,12.80
2017-11-17T03:41:21.131Z,12.80
2017-11-17T03:42:21.124Z,13.20
2017-11-17T03:43:21.117Z,13.00
2017-11-17T03:44:21.112Z,12.40
2017-11-17T03:45:21.105Z,13.10
2017-11-17T03:46:21.098Z,13.20
2017-11-17T03:47:21.090Z,12.50
2017-11-17T03:48:21.086Z,12.40
2017-11-17T03:49:21.076Z,12.00
2017-11-17T03:50:21.069Z,14.40
2017-11-17T03:51:21.062Z,13.40
2017-11-17T03:52:21.055Z,13.00
2017-11-17T03:53:21.048Z,14.30
2017-11-17T03:54:21.041Z,13.70
2017-11-17T03:55:21.034Z,13.20
2017-11-17T03:56:21.028Z,12.60
2017-11-17T03:57:21.044Z,13.90
2017-11-17T03:58:21.013Z,12.70
2017-11-17T03:59:21.015Z,12.10
2017-11-17T04:00:20.999Z,12.90
2017-11-17T04:01:21.009Z,11.80
2017-11-17T04:02:20.984Z,12.50
2017-11-17T04:03:20.977Z,13.10
2017-11-17T04:04:20.977Z,12.10
2017-11-17T04:05:21.014Z,13.20
2017-11-17T04:06:20.956Z,13.30
2017-11-17T04:07:20.950Z,15.80
2017-11-17T04:08:20.944Z,15.20
2017-11-17T04:09:20.936Z,14.10
2017-11-17T04:10:20.928Z,15.00
2017-11-17T04:11:20.921Z,14.10
2017-11-17T04:12:20.914Z,14.80
2017-11-17T04:13:20.959Z,13.70
2017-11-17T04:14:20.901Z,13.50
2017-11-17T04:15:20.893Z,14.00
2017-11-17T04:16:20.894Z,13.50
2017-11-17T04:17:20.929Z,12.00
2017-11-17T04:18:20.871Z,13.20
2017-11-17T04:19:20.866Z,12.60
2017-11-17T04:20:20.858Z,13.20
2017-11-17T04:21:20.852Z,14.20
2017-11-17T04:22:20.843Z,12.60
2017-11-17T04:23:20.838Z,13.20
2017-11-17T04:24:20.830Z,13.20
2017-11-17T04:25:20.823Z,13.80
2017-11-17T04:26:20.815Z,13.90
2017-11-17T04:27:20.808Z,13.60
2017-11-17T04:28:20.803Z,13.20
2017-11-17T04:29:20.794Z,13.40
2017-11-17T04:30:20.788Z,14.10
2017-11-17T04:31:20.780Z,13.90
2017-11-17T04:32:20.773Z,13.70
2017-11-17T04:33:20.766Z,13.50
2017-11-17T04:34:20.758Z,12.90
2017-11-17T04:35:20.751Z,12.60
2017-11-17T04:36:20.744Z,14.70
2017-11-17T04:37:20.737Z,13.90
2017-11-17T04:38:20.729Z,13.10
2017-11-17T04:39:20.722Z,12.70
2017-11-17T04:40:20.716Z,12.00
2017-11-17T04:41:20.714Z,13.40
2017-11-17T04:42:20.700Z,14.00
2017-11-17T04:43:20.725Z,14.30
2017-11-17T04:44:20.687Z,14.60
2017-11-17T04:45:20.680Z,14.80
2017-11-17T04:46:20.673Z,15.50
2017-11-17T04:47:20.665Z,14.30
2017-11-17T04:48:20.658Z,16.70
2017-11-17T04:49:20.652Z,15.60
2017-11-17T04:50:20.644Z,16.00
2017-11-17T04:51:20.636Z,15.90
2017-11-17T04:52:20.638Z,16.00
2017-11-17T04:53:20.622Z,14.70
2017-11-17T04:54:20.616Z,14.10
2017-11-17T04:55:20.607Z,14.00
2017-11-17T04:56:20.600Z,13.00
2017-11-17T04:57:20.593Z,13.90
2017-11-17T04:58:20.588Z,12.30
2017-11-17T04:59:20.578Z,12.60
2017-11-17T05:00:20.571Z,13.80
2017-11-17T05:01:20.570Z,14.30
2017-11-17T05:02:20.557Z,13.70
2017-11-17T05:03:20.550Z,13.70
2017-11-17T05:04:20.544Z,14.40
2017-11-17T05:05:20.536Z,14.30
2017-11-17T05:06:20.529Z,13.70
2017-11-17T05:07:20.522Z,14.80
2017-11-17T05:08:20.515Z,15.80
2017-11-17T05:09:20.509Z,16.20
2017-11-17T05:10:20.501Z,15.00
2017-11-17T05:11:20.492Z,13.60
2017-11-17T05:12:20.486Z,14.90
2017-11-17T05:13:20.479Z,14.70
2017-11-17T05:14:20.470Z,13.70
2017-11-17T05:15:20.464Z,15.50
2017-11-17T05:16:20.458Z,14.90
2017-11-17T05:17:20.451Z,14.90
2017-11-17T05:18:20.444Z,15.20
2017-11-17T05:19:20.435Z,16.60
2017-11-17T05:20:20.431Z,15.80
2017-11-17T05:21:20.423Z,15.40
2017-11-17T05:22:20.415Z,16.80
2017-11-17T05:23:20.408Z,14.50
2017-11-17T05:24:20.402Z,14.90
2017-11-17T05:25:20.445Z,13.60
2017-11-17T05:26:20.386Z,16.50
2017-11-17T05:27:20.381Z,16.40
2017-11-17T05:28:20.373Z,15.60
2017-11-17T05:29:20.418Z,15.60
2017-11-17T05:30:20.358Z,14.90
2017-11-17T05:31:20.353Z,17.10
2017-11-17T05:32:20.345Z,15.70
2017-11-17T05:33:20.389Z,16.10
2017-11-17T05:34:20.331Z,16.30
2017-11-17T05:35:20.324Z,15.70
2017-11-17T05:36:20.319Z,17.20
2017-11-17T05:37:20.310Z,15.80
2017-11-17T05:38:20.303Z,15.60
2017-11-17T05:39:20.296Z,16.10
2017-11-17T05:40:20.289Z,16.50
2017-11-17T05:41:20.331Z,15.70
2017-11-17T05:42:20.273Z,15.40
2017-11-17T05:43:20.269Z,15.30
2017-11-17T05:44:20.260Z,16.10
2017-11-17T05:45:20.254Z,15.50
2017-11-17T05:46:20.245Z,15.60
2017-11-17T05:47:20.240Z,16.10
2017-11-17T05:48:20.232Z,15.20
2017-11-17T05:49:20.224Z,15.80
2017-11-17T05:50:20.217Z,16.90
2017-11-17T05:51:20.210Z,16.20
2017-11-17T05:52:20.203Z,16.20
2017-11-17T05:53:20.196Z,16.20
2017-11-17T05:54:20.188Z,15.80
2017-11-17T05:55:20.181Z,16.40
2017-11-17T05:56:20.175Z,14.50
2017-11-17T05:57:20.174Z,14.90
2017-11-17T05:58:20.159Z,18.10
2017-11-17T05:59:20.152Z,18.90
2017-11-17T06:00:20.146Z,17.50
2017-11-17T06:01:20.138Z,16.80
2017-11-17T06:02:20.130Z,16.30
2017-11-17T06:03:20.123Z,17.40
2017-11-17T06:04:20.114Z,16.30
2017-11-17T06:05:20.109Z,14.60
2017-11-17T06:06:20.100Z,16.20
2017-11-17T06:07:20.092Z,15.90
2017-11-17T06:08:20.086Z,16.20
2017-11-17T06:09:20.078Z,15.60
2017-11-17T06:10:20.070Z,15.20
2017-11-17T06:11:20.063Z,15.60
2017-11-17T06:12:20.056Z,14.70
2017-11-17T06:13:20.106Z,15.50
2017-11-17T06:14:20.042Z,15.50
2017-11-17T06:15:20.034Z,16.70
2017-11-17T06:16:20.028Z,16.90
2017-11-17T06:17:20.020Z,16.10
2017-11-17T06:18:20.062Z,16.50
2017-11-17T06:19:20.005Z,15.90
2017-11-17T06:20:19.998Z,15.50
2017-11-17T06:21:19.990Z,15.00
2017-11-17T06:22:19.983Z,17.80
2017-11-17T06:23:19.976Z,15.80
2017-11-17T06:24:19.970Z,15.70
2017-11-17T06:25:19.962Z,16.10
2017-11-17T06:26:19.952Z,16.50
2017-11-17T06:27:19.996Z,15.60
2017-11-17T06:28:19.939Z,15.50
2017-11-17T06:29:19.932Z,17.70
2017-11-17T06:30:19.925Z,16.00
2017-11-17T06:31:19.917Z,17.20
2017-11-17T06:32:19.909Z,16.90
2017-11-17T06:33:19.902Z,19.70
2017-11-17T06:34:19.893Z,20.10
2017-11-17T06:35:19.890Z,19.80
2017-11-17T06:36:19.884Z,18.00
2017-11-17T06:37:19.873Z,16.40
2017-11-17T06:38:19.865Z,15.10
2017-11-17T06:39:19.864Z,15.10
2017-11-17T06:40:19.851Z,16.00
2017-11-17T06:41:19.844Z,13.90
2017-11-17T06:42:19.836Z,14.90
2017-11-17T06:43:19.829Z,14.40
2017-11-17T06:44:19.823Z,14.60
2017-11-17T06:45:19.815Z,13.40
2017-11-17T06:46:19.807Z,12.50
2017-11-17T06:47:19.799Z,12.90
2017-11-17T06:48:19.792Z,13.00
2017-11-17T06:49:19.786Z,11.60
2017-11-17T06:50:19.777Z,11.00
2017-11-17T06:51:19.771Z,11.70
2017-11-17T06:52:19.762Z,11.70
2017-11-17T06:53:19.754Z,12.60
2017-11-17T06:54:19.748Z,11.50
2017-11-17T06:55:19.740Z,12.20
2017-11-17T06:56:19.734Z,10.80
2017-11-17T06:57:19.727Z,12.00
2017-11-17T06:58:19.722Z,11.90
2017-11-17T06:59:19.748Z,11.50
2017-11-17T07:00:19.705Z,12.90
2017-11-17T07:01:19.699Z,13.20
2017-11-17T07:02:19.691Z,14.10
2017-11-17T07:03:19.684Z,14.80
2017-11-17T07:04:19.679Z,17.30
2017-11-17T07:05:19.670Z,16.40
2017-11-17T07:06:19.663Z,13.70
2017-11-17T07:07:19.658Z,13.90
2017-11-17T07:08:19.651Z,12.40
2017-11-17T07:09:19.644Z,13.90
2017-11-17T07:10:19.687Z,12.90
2017-11-17T07:11:19.636Z,11.50
2017-11-17T07:12:19.625Z,11.30
2017-11-17T07:13:19.619Z,10.40
2017-11-17T07:14:19.613Z,11.20
2017-11-17T07:15:19.608Z,11.20
2017-11-17T07:16:19.603Z,16.40
2017-11-17T07:17:19.598Z,13.70
2017-11-17T07:18:19.592Z,10.80
2017-11-17T07:19:19.591Z,10.90
2017-11-17T07:20:19.584Z,11.30
2017-11-17T07:21:19.580Z,10.30
2017-11-17T07:22:19.575Z,10.70
2017-11-17T07:23:19.571Z,11.60
2017-11-17T07:24:19.567Z,10.60
2017-11-17T07:25:19.564Z,10.00
2017-11-17T07:26:19.560Z,10.50
2017-11-17T07:27:19.556Z,11.00
2017-11-17T07:28:19.552Z,10.50
2017-11-17T07:29:19.551Z,11.10
2017-11-17T07:30:19.544Z,11.00
2017-11-17T07:31:19.539Z,9.70
2017-11-17T07:32:19.536Z,11.20
2017-11-17T07:33:19.531Z,11.30
2017-11-17T07:34:19.529Z,12.10
2017-11-17T07:35:19.521Z,12.80
2017-11-17T07:36:19.519Z,12.90
2017-11-17T07:37:19.565Z,12.10
2017-11-17T07:38:19.514Z,13.10
2017-11-17T07:39:19.504Z,13.30
2017-11-17T07:40:19.501Z,11.30
2017-11-17T07:41:19.497Z,12.30
2017-11-17T07:42:19.493Z,10.70
2017-11-17T07:43:19.489Z,10.20
2017-11-17T07:44:19.491Z,11.10
2017-11-17T07:45:19.482Z,10.50
2017-11-17T07:46:19.477Z,10.40
2017-11-17T07:47:19.476Z,10.40
2017-11-17T07:48:19.472Z,10.50
2017-11-17T07:49:19.470Z,11.60
2017-11-17T07:50:19.466Z,11.90
2017-11-17T07:51:19.464Z,11.40
2017-11-17T07:52:19.511Z,11.50
2017-11-17T07:53:19.456Z,11.60
2017-11-17T07:54:19.452Z,12.40
2017-11-17T07:55:19.450Z,14.70
2017-11-17T07:56:19.447Z,17.50
2017-11-17T07:57:19.444Z,17.00
2017-11-17T07:58:19.439Z,18.30
2017-11-17T07:59:19.437Z,18.60
2017-11-17T08:00:19.432Z,20.00
2017-11-17T08:01:19.429Z,18.80
2017-11-17T08:02:19.476Z,18.90
2017-11-17T08:03:19.420Z,18.80
2017-11-17T08:04:19.416Z,17.40
2017-11-17T08:05:19.413Z,18.80
2017-11-17T08:06:19.409Z,18.30
2017-11-17T08:07:19.404Z,20.20
2017-11-17T08:08:19.400Z,17.90
2017-11-17T08:09:19.397Z,18.20
2017-11-17T08:10:19.393Z,18.40
2017-11-17T08:11:19.392Z,19.70
2017-11-17T08:12:19.385Z,18.70
2017-11-17T08:13:19.380Z,16.90
2017-11-17T08:14:19.376Z,18.60
2017-11-17T08:15:19.372Z,17.60
2017-11-17T08:16:19.368Z,18.30
2017-11-17T08:17:19.365Z,18.20
2017-11-17T08:18:19.360Z,17.20
2017-11-17T08:19:19.358Z,16.30
2017-11-17T08:20:19.354Z,16.20
2017-11-17T08:21:19.349Z,15.70
2017-11-17T08:22:19.343Z,15.60
2017-11-17T08:23:19.339Z,16.90
2017-11-17T08:24:19.336Z,16.40
2017-11-17T08:25:19.332Z,17.20
2017-11-17T08:26:19.326Z,17.40
2017-11-17T08:27:19.321Z,18.20
2017-11-17T08:28:19.319Z,16.50
2017-11-17T08:29:19.311Z,16.70
2017-11-17T08:30:19.307Z,15.00
2017-11-17T08:31:19.302Z,14.80
2017-11-17T08:32:19.300Z,14.80
2017-11-17T08:33:19.293Z,14.50
2017-11-17T08:34:19.288Z,12.60
2017-11-17T08:35:19.282Z,13.10
2017-11-17T08:36:19.278Z,13.00
2017-11-17T08:37:19.274Z,13.70
2017-11-17T08:38:19.268Z,13.60
2017-11-17T08:39:19.264Z,12.80
2017-11-17T08:40:19.258Z,13.70
2017-11-17T08:41:19.253Z,14.60
2017-11-17T08:42:19.248Z,14.10
2017-11-17T08:43:19.243Z,13.60
2017-11-17T08:44:19.237Z,13.80
2017-11-17T08:45:19.232Z,13.60
2017-11-17T08:46:19.227Z,14.40
2017-11-17T08:47:19.222Z,15.60
2017-11-17T08:48:19.266Z,16.20
2017-11-17T08:49:19.513Z,17.00
2017-11-17T08:50:19.208Z,17.50
2017-11-17T08:51:19.201Z,16.10
2017-11-17T08:52:19.196Z,17.40
2017-11-17T08:53:19.192Z,13.90
2017-11-17T08:54:19.185Z,15.80
2017-11-17T08:55:19.430Z,17.40
2017-11-17T08:56:19.177Z,18.10
2017-11-17T08:57:19.178Z,16.40
2017-11-17T08:58:19.165Z,16.10
2017-11-17T08:59:19.160Z,21.10
2017-11-17T09:00:19.154Z,17.50
2017-11-17T09:01:19.149Z,17.30
2017-11-17T09:02:19.143Z,17.70
2017-11-17T09:03:19.137Z,16.60
2017-11-17T09:04:19.132Z,20.40
2017-11-17T09:05:19.127Z,17.00
2017-11-17T09:06:19.119Z,16.90
2017-11-17T09:07:19.151Z,16.80
2017-11-17T09:08:19.110Z,16.30
2017-11-17T09:09:19.105Z,16.60
2017-11-17T09:10:19.099Z,15.90
2017-11-17T09:11:19.095Z,14.60
2017-11-17T09:12:19.088Z,16.30
2017-11-17T09:13:19.084Z,16.20
2017-11-17T09:14:19.078Z,15.90
2017-11-17T09:15:19.077Z,14.30
2017-11-17T09:16:19.075Z,16.30
2017-11-17T09:17:19.063Z,16.40
2017-11-17T09:18:19.056Z,15.20
2017-11-17T09:19:19.050Z,15.00
2017-11-17T09:20:19.045Z,14.60
2017-11-17T09:21:19.041Z,13.60
2017-11-17T09:22:19.036Z,14.10
2017-11-17T09:23:19.028Z,15.90
2017-11-17T09:24:19.022Z,17.20
2017-11-17T09:25:19.021Z,15.00
2017-11-17T09:26:19.012Z,14.50
2017-11-17T09:27:19.007Z,14.40
2017-11-17T09:28:19.001Z,14.20
2017-11-17T09:29:19.026Z,13.70
2017-11-17T09:30:18.992Z,14.10
2017-11-17T09:31:18.985Z,13.10
2017-11-17T09:32:18.980Z,14.40
2017-11-17T09:33:18.975Z,15.10
2017-11-17T09:34:18.968Z,14.50
2017-11-17T09:35:18.964Z,13.80
2017-11-17T09:36:18.959Z,14.60
2017-11-17T09:37:18.953Z,13.70
2017-11-17T09:38:18.947Z,14.70
2017-11-17T09:39:18.944Z,14.00
2017-11-17T09:40:18.939Z,14.90
2017-11-17T09:41:18.933Z,13.90
2017-11-17T09:42:18.927Z,15.10
2017-11-17T09:43:18.922Z,14.20
2017-11-17T09:44:18.917Z,13.30
2017-11-17T09:45:18.912Z,14.10
2017-11-17T09:46:18.907Z,14.40
2017-11-17T09:47:18.914Z,14.20
2017-11-17T09:48:18.905Z,12.50
2017-11-17T09:49:18.893Z,14.50
2017-11-17T09:50:18.886Z,13.20
2017-11-17T09:51:18.886Z,13.60
2017-11-17T09:52:18.879Z,14.60
2017-11-17T09:53:18.874Z,13.50
2017-11-17T09:54:18.868Z,14.70
2017-11-17T09:55:18.871Z,14.40
2017-11-17T09:56:18.860Z,14.20
2017-11-17T09:57:18.903Z,14.90
2017-11-17T09:58:18.849Z,15.40
2017-11-17T09:59:18.844Z,14.60
2017-11-17T10:00:18.841Z,14.60
2017-11-17T10:01:18.836Z,14.40
2017-11-17T10:02:18.831Z,15.70
2017-11-17T10:03:18.830Z,15.30
2017-11-17T10:04:18.826Z,15.00
2017-11-17T10:05:18.821Z,16.00
2017-11-17T10:06:18.815Z,15.10
2017-11-17T10:07:18.812Z,15.60
2017-11-17T10:08:18.810Z,15.70
2017-11-17T10:09:18.806Z,15.80
2017-11-17T10:10:18.853Z,16.30
2017-11-17T10:11:18.798Z,16.60
2017-11-17T10:12:18.794Z,15.20
2017-11-17T10:13:18.791Z,16.20
2017-11-17T10:14:18.800Z,44.60
2017-11-17T10:15:18.784Z,19.30
2017-11-17T10:16:18.830Z,16.40
2017-11-17T10:17:18.777Z,15.10
2017-11-17T10:18:18.812Z,16.00
2017-11-17T10:19:18.767Z,15.60
2017-11-17T10:20:18.764Z,14.80
2017-11-17T10:21:18.765Z,15.20
2017-11-17T10:22:18.754Z,15.30
2017-11-17T10:23:18.751Z,15.20
2017-11-17T10:24:18.749Z,14.30
2017-11-17T10:25:18.748Z,14.10
2017-11-17T10:26:18.740Z,13.90
2017-11-17T10:27:18.736Z,15.80
2017-11-17T10:28:18.731Z,13.90
2017-11-17T10:29:18.729Z,13.50
2017-11-17T10:30:18.723Z,14.30
2017-11-17T10:31:18.718Z,14.80
2017-11-17T10:32:18.717Z,14.70
2017-11-17T10:33:18.712Z,14.10
2017-11-17T10:34:18.712Z,14.10
2017-11-17T10:35:18.703Z,14.80
2017-11-17T10:36:18.699Z,13.50
2017-11-17T10:37:18.696Z,13.70
2017-11-17T10:38:18.690Z,13.80
2017-11-17T10:39:18.687Z,14.50
2017-11-17T10:40:18.684Z,14.50
2017-11-17T10:41:18.679Z,15.30
2017-11-17T10:42:18.675Z,15.10
2017-11-17T10:43:18.671Z,14.60
2017-11-17T10:44:18.668Z,14.70
2017-11-17T10:45:18.669Z,14.00
2017-11-17T10:46:18.711Z,14.50
2017-11-17T10:47:18.655Z,14.70
2017-11-17T10:48:18.651Z,14.40
2017-11-17T10:49:18.648Z,15.30
2017-11-17T10:50:18.644Z,15.20
2017-11-17T10:51:18.641Z,16.70
2017-11-17T10:52:18.636Z,17.60
2017-11-17T10:53:18.683Z,16.90
2017-11-17T10:54:18.628Z,16.10
2017-11-17T10:55:18.625Z,16.80
2017-11-17T10:56:18.627Z,17.50
2017-11-17T10:57:18.617Z,19.10
2017-11-17T10:58:18.613Z,18.50
2017-11-17T10:59:18.611Z,17.50
2017-11-17T11:00:18.605Z,18.30
2017-11-17T11:01:18.603Z,17.30
2017-11-17T11:02:18.598Z,17.80
2017-11-17T11:03:18.595Z,17.30
2017-11-17T11:04:18.593Z,17.90
2017-11-17T11:05:18.587Z,16.80
2017-11-17T11:06:18.584Z,18.10
2017-11-17T11:07:18.580Z,17.70
2017-11-17T11:08:18.577Z,18.40
2017-11-17T11:09:18.572Z,18.00
2017-11-17T11:10:18.568Z,17.30
2017-11-17T11:11:18.565Z,18.20
2017-11-17T11:12:18.561Z,16.20
2017-11-17T11:13:18.559Z,15.90
2017-11-17T11:14:18.552Z,15.20
2017-11-17T11:15:18.551Z,15.40
2017-11-17T11:16:18.545Z,15.60
2017-11-17T11:17:18.543Z,14.50
2017-11-17T11:18:18.537Z,15.70
2017-11-17T11:19:18.533Z,15.40
2017-11-17T11:20:18.530Z,15.50
2017-11-17T11:21:18.576Z,16.60
2017-11-17T11:22:18.522Z,15.10
2017-11-17T11:23:18.519Z,15.60
2017-11-17T11:24:18.515Z,16.20
2017-11-17T11:25:18.516Z,15.60
2017-11-17T11:26:18.509Z,16.80
2017-11-17T11:27:18.552Z,16.20
2017-11-17T11:28:18.499Z,16.50
2017-11-17T11:29:18.496Z,16.70
2017-11-17T11:30:18.490Z,18.10
2017-11-17T11:31:18.488Z,17.70
2017-11-17T11:32:18.484Z,17.40
2017-11-17T11:33:18.480Z,18.00
2017-11-17T11:34:18.475Z,18.00
2017-11-17T11:35:18.471Z,17.60
2017-11-17T11:36:18.467Z,16.10
2017-11-17T11:37:18.467Z,17.20
2017-11-17T11:38:18.463Z,16.80
2017-11-17T11:39:18.462Z,16.40
2017-11-17T11:40:18.453Z,17.70
2017-11-17T11:41:18.448Z,17.40
2017-11-17T11:42:18.444Z,17.70
2017-11-17T11:43:18.440Z,17.40
2017-11-17T11:44:18.437Z,17.10
2017-11-17T11:45:18.435Z,16.60
2017-11-17T11:46:18.429Z,16.60
2017-11-17T11:47:18.427Z,17.10
2017-11-17T11:48:18.423Z,16.80
2017-11-17T11:49:18.420Z,16.60
2017-11-17T11:50:18.415Z,17.20
2017-11-17T11:51:18.412Z,17.10
2017-11-17T11:52:18.409Z,16.80
2017-11-17T11:53:18.404Z,17.30
2017-11-17T11:54:18.401Z,17.60
2017-11-17T11:55:18.397Z,17.30
2017-11-17T11:56:18.393Z,17.70
2017-11-17T11:57:18.390Z,17.40
2017-11-17T11:58:18.387Z,18.40
2017-11-17T11:59:18.382Z,19.50
2017-11-17T12:00:18.379Z,23.40
2017-11-17T12:01:18.376Z,17.70
2017-11-17T12:02:18.426Z,18.10
2017-11-17T12:03:18.368Z,19.40
2017-11-17T12:04:18.369Z,17.90
2017-11-17T12:05:18.363Z,17.60
2017-11-17T12:06:18.359Z,18.40
2017-11-17T12:07:18.356Z,18.60
2017-11-17T12:08:18.354Z,19.50
2017-11-17T12:09:18.351Z,20.30
2017-11-17T12:10:18.358Z,21.20
2017-11-17T12:11:18.347Z,20.20
2017-11-17T12:12:18.341Z,20.70
2017-11-17T12:13:18.337Z,19.80
2017-11-17T12:14:18.334Z,19.50
2017-11-17T12:15:18.338Z,19.70
2017-11-17T12:16:18.328Z,19.90
2017-11-17T12:17:18.325Z,18.70
2017-11-17T12:18:18.322Z,20.10
2017-11-17T12:19:18.320Z,19.40
2017-11-17T12:20:18.316Z,19.70
2017-11-17T12:21:18.315Z,20.40
2017-11-17T12:22:18.311Z,19.40
2017-11-17T12:23:18.308Z,19.70
2017-11-17T12:24:18.305Z,20.40
2017-11-17T12:25:18.301Z,19.00
2017-11-17T12:26:18.298Z,18.50
2017-11-17T12:27:18.296Z,19.90
2017-11-17T12:28:18.295Z,20.90
2017-11-17T12:29:18.292Z,20.30
2017-11-17T12:30:18.286Z,19.60
2017-11-17T12:31:18.282Z,18.10
2017-11-17T12:32:18.281Z,20.00
2017-11-17T12:33:18.277Z,18.80
2017-11-17T12:34:18.288Z,19.40
2017-11-17T12:35:18.271Z,19.00
2017-11-17T12:36:18.266Z,19.30
2017-11-17T12:37:18.265Z,19.70
2017-11-17T12:38:18.260Z,19.80
2017-11-17T12:39:18.258Z,19.00
2017-11-17T12:40:18.255Z,18.90
2017-11-17T12:41:18.253Z,19.90
2017-11-17T12:42:18.247Z,19.70
2017-11-17T12:43:18.244Z,22.00
2017-11-17T12:44:18.247Z,21.80
2017-11-17T12:45:18.237Z,22.50
2017-11-17T12:46:18.232Z,20.40
2017-11-17T12:47:18.228Z,20.00
2017-11-17T12:48:18.225Z,21.70
2017-11-17T12:49:18.222Z,22.20
2017-11-17T12:50:18.219Z,19.70
2017-11-17T12:51:18.225Z,21.60
2017-11-17T12:52:18.213Z,21.00